Time;durP1;ratioP1;P1;durP2;ratioP2;P2;SDS_P1;SDS_P2;PMS_P1;PMS_P2;Temp;Humidity;BMP_temperature;BMP_pressure;BME280_temperature;BME280_humidity;BME280_pressure;Samples;Min_cycle;Max_cycle;Signal;HPM_P1;HPM_P2
2022/01/09 00:00:16;;;;;;;12.38;7.57;;;5.70;99.90;;;;;;5010697;28;20033;-85
2022/01/09 00:02:43;;;;;;;12.25;7.75;;;4.40;99.90;;;;;;5003268;28;20038;-85
2022/01/09 00:05:10;;;;;;;11.85;7.53;;;5.00;99.90;;;;;;4994164;28;20034;-85
2022/01/09 00:07:36;;;;;;;11.88;7.00;;;4.40;99.90;;;;;;4993575;28;20129;-85
2022/01/09 00:10:02;;;;;;;12.32;7.50;;;4.40;99.90;;;;;;5020664;28;20120;-85
2022/01/09 00:12:28;;;;;;;12.30;7.53;;;4.40;99.90;;;;;;4994473;28;20435;-85
2022/01/09 00:14:53;;;;;;;13.32;7.22;;;4.40;99.90;;;;;;4974520;28;20137;-85
2022/01/09 00:17:19;;;;;;;11.13;7.05;;;4.40;99.90;;;;;;4957912;28;20049;-85
2022/01/09 00:19:45;;;;;;;12.50;6.97;;;5.90;99.90;;;;;;4975867;28;20426;-85
2022/01/09 00:22:13;;;;;;;13.57;7.80;;;5.70;99.90;;;;;;4990998;28;20449;-85
2022/01/09 00:24:38;;;;;;;12.77;7.35;;;5.20;99.90;;;;;;4977891;28;20144;-84
2022/01/09 00:27:04;;;;;;;12.10;7.22;;;4.50;99.90;;;;;;5010679;28;20137;-85
2022/01/09 00:29:30;;;;;;;12.07;7.20;;;4.50;99.90;;;;;;4966180;28;20045;-85
2022/01/09 00:31:56;;;;;;;11.75;7.47;;;5.80;99.90;;;;;;4977636;28;20030;-85
2022/01/09 00:34:21;;;;;;;11.68;7.65;;;4.50;99.90;;;;;;5010287;28;20076;-85
2022/01/09 00:36:47;;;;;;;11.27;7.10;;;4.50;99.90;;;;;;4993611;28;20193;-85
2022/01/09 00:39:13;;;;;;;12.45;7.45;;;5.50;99.90;;;;;;4962163;28;20034;-84
2022/01/09 00:41:39;;;;;;;11.75;7.55;;;4.40;99.90;;;;;;4974185;28;20129;-85
2022/01/09 00:44:05;;;;;;;11.38;7.45;;;4.80;99.90;;;;;;4987709;28;20511;-84
2022/01/09 00:46:33;;;;;;;11.65;7.30;;;4.50;99.90;;;;;;4993582;28;20041;-85
2022/01/09 00:49:00;;;;;;;11.50;7.15;;;6.10;99.90;;;;;;5021342;28;20052;-86
2022/01/09 00:51:26;;;;;;;11.82;7.13;;;5.10;99.90;;;;;;4973092;28;20045;-85
2022/01/09 00:53:51;;;;;;;11.98;7.60;;;4.50;99.90;;;;;;5010445;28;20601;-85
2022/01/09 00:56:17;;;;;;;11.85;7.47;;;5.70;99.90;;;;;;4993226;28;20217;-85
2022/01/09 00:58:43;;;;;;;11.93;7.32;;;4.50;99.90;;;;;;4976680;28;20042;-85
2022/01/09 01:01:09;;;;;;;11.77;7.35;;;4.60;99.90;;;;;;4981122;28;20049;-85
2022/01/09 01:03:34;;;;;;;11.88;7.60;;;5.90;99.90;;;;;;4993269;28;20033;-85
2022/01/09 01:06:00;;;;;;;11.13;6.95;;;4.40;99.90;;;;;;4977081;28;20407;-85
2022/01/09 01:08:26;;;;;;;10.82;6.75;;;4.40;99.90;;;;;;4993956;28;20123;-85
2022/01/09 01:10:52;;;;;;;11.35;7.03;;;4.40;99.90;;;;;;4990358;28;20145;-84
2022/01/09 01:13:17;;;;;;;12.07;7.50;;;4.40;99.90;;;;;;4977105;28;20049;-84
2022/01/09 01:15:43;;;;;;;13.55;8.13;;;6.20;99.90;;;;;;4957848;28;20400;-84
2022/01/09 01:18:09;;;;;;;11.77;7.53;;;4.40;99.90;;;;;;4993364;28;20034;-84
2022/01/09 01:20:34;;;;;;;12.23;7.63;;;4.40;99.90;;;;;;4983821;28;20070;-84
2022/01/09 01:23:00;;;;;;;12.43;7.60;;;4.40;99.90;;;;;;4975858;28;20099;-84
2022/01/09 01:25:26;;;;;;;13.23;7.88;;;4.40;99.90;;;;;;4990934;28;20068;-84
2022/01/09 01:27:52;;;;;;;13.73;8.15;;;5.90;99.90;;;;;;4993415;28;20048;-85
2022/01/09 01:30:18;;;;;;;12.73;8.15;;;4.40;99.90;;;;;;5005549;28;20492;-84
2022/01/09 01:32:44;;;;;;;12.45;7.65;;;4.40;99.90;;;;;;4976172;28;20491;-84
2022/01/09 01:35:11;;;;;;;12.65;8.32;;;5.00;99.90;;;;;;5008193;28;20042;-85
2022/01/09 01:37:41;;;;;;;12.95;8.57;;;5.50;99.90;;;;;;4972240;28;20034;-85
2022/01/09 01:40:09;;;;;;;13.15;8.35;;;5.00;99.90;;;;;;4991955;28;20569;-84
2022/01/09 01:42:34;;;;;;;12.35;7.93;;;4.40;99.90;;;;;;5008687;28;20304;-84
2022/01/09 01:45:00;;;;;;;13.40;9.07;;;4.40;99.90;;;;;;4991841;28;20301;-84
2022/01/09 01:47:26;;;;;;;14.40;9.60;;;5.80;99.90;;;;;;4976228;28;20077;-85
2022/01/09 01:49:52;;;;;;;15.07;9.32;;;5.40;99.90;;;;;;4992520;28;20483;-84
2022/01/09 01:52:25;;;;;;;13.52;8.88;;;4.80;99.90;;;;;;4965218;28;20049;-84
2022/01/09 01:54:50;;;;;;;13.73;9.43;;;5.30;99.90;;;;;;4992290;28;20025;-84
2022/01/09 01:57:17;;;;;;;15.27;9.93;;;6.00;99.90;;;;;;4976737;28;20088;-85
2022/01/09 01:59:42;;;;;;;16.02;9.77;;;4.40;99.90;;;;;;5024656;28;20395;-85
2022/01/09 02:02:08;;;;;;;16.42;10.70;;;5.20;99.90;;;;;;5007871;28;20049;-84
2022/01/09 02:04:34;;;;;;;14.60;10.45;;;4.40;99.90;;;;;;4975297;28;20049;-85
2022/01/09 02:07:02;;;;;;;15.10;10.68;;;4.40;99.90;;;;;;4992796;28;20046;-84
2022/01/09 02:09:28;;;;;;;14.73;10.20;;;5.70;99.90;;;;;;5008557;28;20273;-85
2022/01/09 02:11:53;;;;;;;15.55;10.77;;;4.50;99.90;;;;;;4976765;28;20487;-85
2022/01/09 02:14:19;;;;;;;16.35;11.43;;;4.90;99.90;;;;;;4976156;28;20053;-85
2022/01/09 02:16:48;;;;;;;16.27;11.52;;;4.50;99.90;;;;;;4979774;28;20041;-85
2022/01/09 02:19:15;;;;;;;17.58;11.60;;;5.70;99.90;;;;;;4993079;28;20080;-85
2022/01/09 02:21:44;;;;;;;20.38;12.93;;;4.50;99.90;;;;;;4993654;28;20049;-85
2022/01/09 02:24:10;;;;;;;16.80;11.88;;;5.70;99.90;;;;;;4982982;28;20044;-84
2022/01/09 02:26:35;;;;;;;17.08;12.13;;;4.50;99.90;;;;;;4977556;28;20537;-85
2022/01/09 02:29:01;;;;;;;17.75;11.93;;;4.40;99.90;;;;;;4970467;28;20052;-84
2022/01/09 02:31:27;;;;;;;16.23;11.13;;;6.00;99.90;;;;;;4993475;28;20116;-85
2022/01/09 02:33:52;;;;;;;21.58;11.80;;;4.50;99.90;;;;;;4979187;28;20037;-84
2022/01/09 02:36:18;;;;;;;16.75;12.07;;;5.00;99.90;;;;;;4994820;28;20065;-85
2022/01/09 02:38:44;;;;;;;17.15;11.25;;;4.50;99.90;;;;;;4992990;28;20064;-84
2022/01/09 02:41:09;;;;;;;17.55;11.93;;;6.10;99.90;;;;;;4973900;28;20099;-84
2022/01/09 02:43:35;;;;;;;17.73;12.55;;;4.50;99.90;;;;;;4980244;28;20052;-84
2022/01/09 02:46:17;;;;;;;18.17;12.20;;;5.60;99.90;;;;;;4983076;28;20037;-84
2022/01/09 02:48:45;;;;;;;20.83;13.68;;;5.00;99.90;;;;;;4993875;28;20033;-85
2022/01/09 02:51:14;;;;;;;20.63;13.50;;;4.90;99.90;;;;;;4993435;28;20033;-84
2022/01/09 02:53:44;;;;;;;18.30;12.90;;;4.60;99.90;;;;;;5009751;28;20033;-84
2022/01/09 02:56:10;;;;;;;18.10;12.07;;;5.20;99.90;;;;;;4991898;28;20129;-84
2022/01/09 02:58:37;;;;;;;20.42;12.63;;;4.60;99.90;;;;;;4965800;28;20140;-84
2022/01/09 03:01:04;;;;;;;19.17;12.05;;;4.80;99.90;;;;;;4994000;28;20614;-84
2022/01/09 03:03:30;;;;;;;17.92;11.75;;;5.60;99.90;;;;;;4992886;28;20045;-84
2022/01/09 03:05:56;;;;;;;18.98;11.80;;;4.80;99.90;;;;;;5011079;28;20037;-84
2022/01/09 03:08:22;;;;;;;16.13;9.80;;;5.60;99.90;;;;;;5006786;28;20038;-84
2022/01/09 03:10:47;;;;;;;15.32;9.35;;;4.70;99.90;;;;;;4992995;28;20038;-85
2022/01/09 03:13:13;;;;;;;16.52;8.95;;;6.00;99.90;;;;;;4973717;28;20034;-84
2022/01/09 03:15:39;;;;;;;18.38;8.27;;;5.20;99.90;;;;;;4971795;28;20054;-84
2022/01/09 03:18:05;;;;;;;15.48;7.32;;;6.30;99.90;;;;;;4970279;28;20033;-84
2022/01/09 03:20:31;;;;;;;15.02;7.22;;;5.60;99.90;;;;;;4988307;28;20038;-84
2022/01/09 03:22:58;;;;;;;18.52;7.03;;;5.70;99.90;;;;;;4990485;28;20099;-84
2022/01/09 03:25:25;;;;;;;12.70;6.07;;;5.80;99.90;;;;;;4992003;28;20045;-85
2022/01/09 03:27:52;;;;;;;17.70;5.28;;;5.70;99.90;;;;;;4979390;28;20042;-84
2022/01/09 03:30:20;;;;;;;17.13;5.45;;;5.50;99.90;;;;;;4975560;28;20049;-84
2022/01/09 03:32:47;;;;;;;19.70;4.72;;;6.30;99.90;;;;;;5008775;28;20121;-84
2022/01/09 03:35:15;;;;;;;14.50;4.18;;;5.60;99.90;;;;;;4983441;28;20049;-84
2022/01/09 03:37:43;;;;;;;16.75;3.63;;;5.20;99.90;;;;;;4992966;28;20038;-84
2022/01/09 03:40:15;;;;;;;15.65;3.40;;;6.70;99.90;;;;;;5008827;28;20415;-84
2022/01/09 03:42:41;;;;;;;13.57;3.35;;;6.90;99.90;;;;;;5011525;28;20610;-84
2022/01/09 03:45:08;;;;;;;14.25;3.20;;;5.60;99.90;;;;;;5010811;28;20121;-84
2022/01/09 03:47:38;;;;;;;16.20;3.20;;;5.50;99.90;;;;;;5007861;28;20049;-84
2022/01/09 03:50:07;;;;;;;17.70;3.53;;;7.00;99.90;;;;;;4977789;28;20211;-84
2022/01/09 03:52:34;;;;;;;22.58;3.67;;;5.60;99.90;;;;;;4994718;28;20034;-84
2022/01/09 03:54:59;;;;;;;16.38;3.40;;;5.40;99.90;;;;;;4979039;28;20415;-84
2022/01/09 03:57:25;;;;;;;13.57;2.70;;;6.70;99.90;;;;;;5002777;28;20042;-84
2022/01/09 03:59:51;;;;;;;15.38;2.95;;;5.60;99.90;;;;;;4976086;28;20041;-84
2022/01/09 04:02:16;;;;;;;12.68;3.10;;;6.20;99.90;;;;;;4975929;28;20052;-84
2022/01/09 04:04:42;;;;;;;17.50;3.22;;;7.40;99.90;;;;;;4992299;28;20460;-84
2022/01/09 04:07:08;;;;;;;16.25;2.85;;;5.60;99.90;;;;;;4978800;28;20045;-85
2022/01/09 04:09:40;;;;;;;15.07;3.22;;;5.60;99.90;;;;;;4975955;28;20038;-85
2022/01/09 04:12:17;;;;;;;14.73;3.00;;;6.60;99.90;;;;;;5001986;28;20038;-84
2022/01/09 04:14:47;;;;;;;16.13;3.20;;;6.80;99.90;;;;;;5008753;28;20160;-84
2022/01/09 04:17:24;;;;;;;15.13;3.45;;;5.60;99.90;;;;;;4993912;28;20546;-84
2022/01/09 04:19:50;;;;;;;18.02;2.97;;;6.40;99.90;;;;;;5010759;28;20410;-84
2022/01/09 04:22:15;;;;;;;21.10;3.55;;;6.60;99.90;;;;;;4982414;28;20049;-84
2022/01/09 04:24:41;;;;;;;17.40;3.80;;;6.90;99.90;;;;;;4994687;28;20448;-84
2022/01/09 04:27:07;;;;;;;17.48;3.17;;;7.60;99.90;;;;;;4994797;28;20037;-84
2022/01/09 04:29:33;;;;;;;17.38;3.25;;;5.90;99.90;;;;;;4972368;28;20471;-84
2022/01/09 04:31:58;;;;;;;23.23;4.05;;;5.60;99.90;;;;;;4958382;28;20120;-84
2022/01/09 04:34:24;;;;;;;29.48;4.50;;;7.20;99.90;;;;;;4967077;28;20050;-84
2022/01/09 04:36:50;;;;;;;25.15;3.80;;;7.10;99.90;;;;;;4993270;28;20521;-84
2022/01/09 04:39:16;;;;;;;31.95;4.68;;;5.70;99.90;;;;;;4977121;28;20041;-84
2022/01/09 04:41:42;;;;;;;32.88;5.15;;;7.00;99.90;;;;;;4990915;28;20539;-84
2022/01/09 04:44:07;;;;;;;32.95;5.35;;;6.00;99.90;;;;;;4976036;28;20117;-85
2022/01/09 04:46:44;;;;;;;39.97;5.68;;;5.90;99.90;;;;;;4975534;28;20068;-84
2022/01/09 04:49:09;;;;;;;29.63;4.85;;;6.50;99.90;;;;;;4993149;28;20045;-85
2022/01/09 04:51:35;;;;;;;35.88;6.95;;;7.70;99.90;;;;;;5006007;28;20261;-84
2022/01/09 04:54:03;;;;;;;31.27;5.68;;;7.30;99.90;;;;;;5009510;28;20041;-84
2022/01/09 04:56:29;;;;;;;31.25;5.05;;;8.00;99.90;;;;;;4980514;28;20109;-84
2022/01/09 04:58:55;;;;;;;28.98;5.80;;;6.10;99.90;;;;;;4977052;28;20137;-85
2022/01/09 05:01:20;;;;;;;26.35;5.15;;;7.20;99.90;;;;;;4976509;28;20038;-84
2022/01/09 05:03:46;;;;;;;26.45;4.88;;;6.10;99.90;;;;;;4993359;28;20479;-86
2022/01/09 05:06:12;;;;;;;31.13;4.95;;;6.20;99.90;;;;;;4973949;28;20030;-85
2022/01/09 05:08:37;;;;;;;31.65;4.80;;;6.20;99.90;;;;;;4956293;28;20490;-85
2022/01/09 05:11:03;;;;;;;29.52;5.45;;;6.20;99.90;;;;;;5008945;28;20140;-85
2022/01/09 05:13:29;;;;;;;25.58;4.82;;;6.20;99.90;;;;;;4961184;28;20092;-85
2022/01/09 05:15:55;;;;;;;29.17;4.97;;;7.20;99.90;;;;;;4961291;28;20057;-85
2022/01/09 05:18:21;;;;;;;27.20;4.53;;;6.70;99.90;;;;;;4993288;28;20117;-84
2022/01/09 05:20:47;;;;;;;29.48;5.35;;;6.90;99.90;;;;;;4971784;28;20038;-84
2022/01/09 05:23:13;;;;;;;24.60;4.55;;;6.20;99.90;;;;;;4994155;28;20084;-84
2022/01/09 05:25:39;;;;;;;26.67;4.60;;;6.70;99.90;;;;;;4991763;28;20049;-85
2022/01/09 05:28:05;;;;;;;30.33;4.65;;;7.00;99.90;;;;;;4975611;28;20042;-85
2022/01/09 05:30:30;;;;;;;26.45;5.28;;;6.20;99.90;;;;;;4976239;28;20073;-84
2022/01/09 05:32:56;;;;;;;25.98;4.82;;;6.20;99.90;;;;;;4991333;28;20061;-85
2022/01/09 05:35:22;;;;;;;26.48;4.50;;;6.60;99.90;;;;;;4977537;28;20029;-85
2022/01/09 05:37:48;;;;;;;26.85;4.13;;;6.20;99.90;;;;;;4973770;28;20045;-85
2022/01/09 05:40:14;;;;;;;23.15;4.03;;;7.00;99.90;;;;;;4976459;28;20121;-85
2022/01/09 05:42:40;;;;;;;24.65;4.78;;;6.20;99.90;;;;;;5009099;28;20042;-85
2022/01/09 05:45:08;;;;;;;26.65;4.10;;;6.70;99.90;;;;;;4992183;28;20499;-85
2022/01/09 05:47:33;;;;;;;25.40;4.45;;;6.20;99.90;;;;;;4993594;28;20100;-85
2022/01/09 05:49:59;;;;;;;26.55;4.57;;;6.20;99.90;;;;;;4972585;28;20041;-84
2022/01/09 05:52:25;;;;;;;23.55;4.10;;;6.60;99.90;;;;;;4991194;28;20042;-84
2022/01/09 05:54:50;;;;;;;23.35;4.15;;;7.20;99.90;;;;;;4976653;28;20042;-85
2022/01/09 05:57:16;;;;;;;29.02;4.30;;;6.20;99.90;;;;;;4992783;28;20474;-85
2022/01/09 05:59:42;;;;;;;22.77;4.50;;;6.20;99.90;;;;;;4976017;28;20041;-84
2022/01/09 06:02:08;;;;;;;21.33;3.55;;;6.20;99.90;;;;;;5008061;28;20042;-84
2022/01/09 06:04:33;;;;;;;24.92;4.25;;;6.20;99.90;;;;;;4989661;28;20103;-84
2022/01/09 06:06:59;;;;;;;25.83;4.15;;;6.10;99.90;;;;;;5006802;28;20483;-84
2022/01/09 06:09:25;;;;;;;19.55;3.90;;;6.10;99.90;;;;;;4985042;28;20042;-85
2022/01/09 06:11:50;;;;;;;23.00;4.70;;;6.80;99.90;;;;;;4975972;28;20033;-85
2022/01/09 06:14:16;;;;;;;21.25;3.78;;;6.10;99.90;;;;;;5007684;28;20038;-84
2022/01/09 06:16:42;;;;;;;19.70;4.13;;;7.10;99.90;;;;;;4974026;28;20049;-85
2022/01/09 06:19:08;;;;;;;20.45;4.60;;;6.00;99.90;;;;;;4975070;28;20041;-85
2022/01/09 06:21:34;;;;;;;31.70;4.40;;;6.60;99.90;;;;;;4977052;28;20374;-85
2022/01/09 06:24:00;;;;;;;22.25;3.97;;;7.60;99.90;;;;;;4960892;28;20034;-84
2022/01/09 06:26:25;;;;;;;22.05;3.83;;;6.00;99.90;;;;;;4957213;28;20049;-84
2022/01/09 06:28:51;;;;;;;23.58;4.05;;;6.00;99.90;;;;;;4963325;28;20205;-84
2022/01/09 06:31:17;;;;;;;23.27;4.20;;;7.20;99.90;;;;;;4952875;28;20042;-83
2022/01/09 06:33:43;;;;;;;23.15;4.18;;;6.00;99.90;;;;;;4945712;28;20200;-85
2022/01/09 06:36:08;;;;;;;30.40;4.50;;;6.60;99.90;;;;;;4992007;28;20120;-85
2022/01/09 06:38:37;;;;;;;27.80;4.55;;;7.10;99.90;;;;;;4962798;28;20511;-85
2022/01/09 06:41:02;;;;;;;21.00;3.42;;;7.80;99.90;;;;;;4966032;28;20362;-85
2022/01/09 06:43:28;;;;;;;17.77;3.40;;;6.00;99.90;;;;;;4979980;28;20655;-85
2022/01/09 06:45:54;;;;;;;22.80;3.45;;;6.40;99.90;;;;;;4977711;28;20418;-84
2022/01/09 06:48:19;;;;;;;26.05;3.92;;;5.90;99.90;;;;;;4996676;28;20041;-84
2022/01/09 06:50:45;;;;;;;17.45;3.35;;;6.60;99.90;;;;;;4982757;28;20046;-85
2022/01/09 06:53:11;;;;;;;16.98;3.33;;;6.30;99.90;;;;;;4956609;28;20042;-85
2022/01/09 06:55:37;;;;;;;23.60;4.55;;;5.90;99.90;;;;;;4944319;28;20065;-85
2022/01/09 06:58:02;;;;;;;22.10;4.10;;;6.70;99.90;;;;;;4963005;28;20090;-84
2022/01/09 07:00:28;;;;;;;21.60;4.25;;;7.60;99.90;;;;;;4966493;28;20038;-84
2022/01/09 07:02:54;;;;;;;22.40;3.70;;;5.90;99.90;;;;;;4965806;28;20041;-85
2022/01/09 07:05:19;;;;;;;19.08;3.58;;;7.40;99.90;;;;;;4959812;28;20526;-85
2022/01/09 07:07:45;;;;;;;15.75;3.28;;;7.70;99.90;;;;;;4975211;28;20042;-85
2022/01/09 07:10:11;;;;;;;18.20;4.38;;;6.80;99.90;;;;;;4980954;28;20041;-84
2022/01/09 07:12:37;;;;;;;21.88;3.50;;;7.50;99.90;;;;;;4996470;28;20549;-85
2022/01/09 07:15:07;;;;;;;25.20;4.22;;;5.90;99.90;;;;;;4974834;28;20053;-85
2022/01/09 07:17:33;;;;;;;22.75;3.90;;;5.90;99.90;;;;;;4992156;28;20053;-85
2022/01/09 07:19:59;;;;;;;22.10;4.18;;;5.80;99.90;;;;;;4974823;28;20617;-85
2022/01/09 07:22:25;;;;;;;26.80;4.45;;;6.90;99.90;;;;;;4975948;28;20042;-86
2022/01/09 07:24:50;;;;;;;20.85;3.55;;;5.80;99.90;;;;;;4967769;28;20049;-84
2022/01/09 07:27:16;;;;;;;19.58;3.95;;;6.70;99.90;;;;;;4979237;28;21470;-85
2022/01/09 07:29:42;;;;;;;18.73;3.65;;;6.10;99.90;;;;;;4971880;28;20049;-85
2022/01/09 07:32:08;;;;;;;20.58;3.00;;;6.50;99.90;;;;;;4985975;28;20034;-85
2022/01/09 07:34:33;;;;;;;17.45;3.10;;;6.20;99.90;;;;;;4974673;28;20041;-85
2022/01/09 07:36:59;;;;;;;18.77;3.45;;;6.80;99.90;;;;;;4974692;28;20061;-84
2022/01/09 07:39:25;;;;;;;21.90;3.58;;;5.80;99.90;;;;;;4992176;28;20084;-84
2022/01/09 07:41:51;;;;;;;20.35;3.42;;;7.00;99.90;;;;;;4991448;28;20191;-85
2022/01/09 07:44:16;;;;;;;25.52;4.10;;;5.70;99.90;;;;;;5006875;28;20046;-85
2022/01/09 07:46:42;;;;;;;16.13;3.13;;;5.60;99.90;;;;;;4989028;28;20092;-84
2022/01/09 07:49:08;;;;;;;15.70;3.13;;;6.90;99.90;;;;;;4974432;28;20053;-85
2022/01/09 07:51:34;;;;;;;20.70;4.05;;;;;;;;;;4975731;28;20108;-85
2022/01/09 07:54:00;;;;;;;20.83;3.08;;;5.60;99.90;;;;;;4991433;28;20523;-85
2022/01/09 07:56:25;;;;;;;19.73;3.20;;;5.60;99.90;;;;;;4989611;28;20117;-84
2022/01/09 07:58:51;;;;;;;17.52;3.38;;;5.60;99.90;;;;;;4976166;28;20046;-84
2022/01/09 08:01:17;;;;;;;20.08;3.40;;;5.60;99.90;;;;;;4970858;28;20042;-84
2022/01/09 08:03:42;;;;;;;16.27;3.55;;;5.50;99.90;;;;;;4972753;28;20046;-84
2022/01/09 08:06:08;;;;;;;21.95;3.28;;;5.50;99.90;;;;;;4954882;28;20224;-85
2022/01/09 08:08:34;;;;;;;21.25;3.15;;;5.50;99.90;;;;;;4989324;28;20045;-85
2022/01/09 08:10:59;;;;;;;20.42;2.97;;;5.50;99.90;;;;;;4975428;28;20038;-85
2022/01/09 08:13:25;;;;;;;18.67;3.30;;;5.40;99.90;;;;;;4978362;28;20042;-84
2022/01/09 08:15:51;;;;;;;17.08;2.83;;;5.50;99.90;;;;;;4979537;28;20076;-85
2022/01/09 08:18:16;;;;;;;21.25;3.15;;;6.10;99.90;;;;;;4978804;28;20133;-84
2022/01/09 08:20:42;;;;;;;17.65;3.03;;;5.50;99.90;;;;;;4962914;28;20045;-85
2022/01/09 08:23:08;;;;;;;15.27;2.63;;;6.10;99.90;;;;;;4985125;28;20037;-84
2022/01/09 08:25:33;;;;;;;21.10;3.15;;;5.70;99.90;;;;;;4995664;28;20045;-85
2022/01/09 08:27:59;;;;;;;17.80;2.90;;;5.50;99.90;;;;;;4975742;28;20103;-85
2022/01/09 08:30:25;;;;;;;19.48;3.28;;;6.80;99.90;;;;;;4978944;28;20050;-84
2022/01/09 08:32:52;;;;;;;19.65;3.38;;;6.40;99.90;;;;;;4994395;28;20034;-85
2022/01/09 08:35:19;;;;;;;14.95;3.33;;;5.60;99.90;;;;;;4976561;28;20193;-85
2022/01/09 08:37:45;;;;;;;18.15;3.15;;;5.60;99.90;;;;;;4977828;28;20495;-85
2022/01/09 08:40:13;;;;;;;17.40;4.03;;;6.80;99.90;;;;;;4954157;28;20038;-85
2022/01/09 08:42:40;;;;;;;18.25;2.80;;;5.40;99.90;;;;;;4994092;28;20410;-85
2022/01/09 08:45:07;;;;;;;23.83;3.47;;;7.00;99.90;;;;;;4993448;28;20380;-85
2022/01/09 08:47:37;;;;;;;19.52;3.45;;;5.40;99.90;;;;;;5008744;28;20487;-85
2022/01/09 08:50:04;;;;;;;17.73;3.17;;;6.40;99.90;;;;;;4977556;28;20046;-83
2022/01/09 08:52:30;;;;;;;22.20;4.43;;;5.40;99.90;;;;;;4984359;28;20439;-85
2022/01/09 08:54:56;;;;;;;14.60;2.78;;;6.50;99.90;;;;;;4974940;28;20026;-85
2022/01/09 08:57:24;;;;;;;17.13;3.00;;;6.80;99.90;;;;;;4976004;28;20103;-85
2022/01/09 08:59:49;;;;;;;16.35;2.80;;;6.50;99.90;;;;;;4977044;28;20034;-85
2022/01/09 09:02:15;;;;;;;16.48;3.17;;;5.80;99.90;;;;;;4990420;28;20103;-84
2022/01/09 09:04:41;;;;;;;14.48;2.50;;;6.10;99.90;;;;;;4990957;28;20137;-84
2022/01/09 09:07:07;;;;;;;19.52;3.10;;;7.10;99.90;;;;;;4990421;28;20038;-84
2022/01/09 09:09:32;;;;;;;13.63;2.80;;;5.50;99.90;;;;;;4978299;28;20040;-85
2022/01/09 09:11:58;;;;;;;17.00;2.95;;;5.60;99.90;;;;;;4975432;28;20045;-84
2022/01/09 09:14:24;;;;;;;18.17;3.40;;;6.10;99.90;;;;;;4973745;28;20057;-84
2022/01/09 09:16:49;;;;;;;18.17;3.40;;;5.80;99.90;;;;;;4981437;28;20038;-84
2022/01/09 09:19:15;;;;;;;17.80;3.00;;;5.70;99.90;;;;;;5006053;28;20045;-85
2022/01/09 09:21:41;;;;;;;18.75;3.08;;;5.60;99.90;;;;;;5011833;28;20039;-84
2022/01/09 09:24:07;;;;;;;15.75;2.90;;;6.70;99.90;;;;;;4977454;28;20088;-85
2022/01/09 09:26:33;;;;;;;18.83;3.20;;;5.60;99.90;;;;;;4987221;28;20126;-85
2022/01/09 09:28:59;;;;;;;16.02;2.88;;;5.90;99.90;;;;;;5007593;28;20048;-84
2022/01/09 09:31:25;;;;;;;14.07;2.72;;;5.60;99.90;;;;;;4977323;28;20034;-85
2022/01/09 09:33:51;;;;;;;15.20;2.67;;;5.60;99.90;;;;;;4996020;28;20088;-84
2022/01/09 09:36:17;;;;;;;15.48;3.05;;;5.70;99.90;;;;;;4995332;28;20072;-84
2022/01/09 09:38:42;;;;;;;19.10;3.25;;;5.70;99.90;;;;;;4996514;28;20029;-85
2022/01/09 09:41:08;;;;;;;14.90;3.00;;;5.70;99.90;;;;;;4994095;28;20025;-84
2022/01/09 09:43:34;;;;;;;16.23;3.40;;;5.70;99.90;;;;;;4994715;28;20561;-84
2022/01/09 09:46:00;;;;;;;17.60;2.90;;;7.10;99.90;;;;;;4991825;28;20124;-84
2022/01/09 09:48:26;;;;;;;16.23;2.85;;;5.80;99.90;;;;;;4980006;28;20120;-84
2022/01/09 09:50:52;;;;;;;18.10;2.90;;;6.00;99.90;;;;;;4996620;28;20559;-85
2022/01/09 09:53:18;;;;;;;18.23;3.53;;;6.10;99.90;;;;;;4983287;28;20033;-85
2022/01/09 09:55:46;;;;;;;15.15;2.75;;;5.80;99.90;;;;;;4979713;28;20034;-85
2022/01/09 09:58:12;;;;;;;12.82;2.60;;;5.80;99.90;;;;;;4996659;28;20041;-85
2022/01/09 10:00:39;;;;;;;15.38;2.88;;;5.80;99.90;;;;;;4991278;28;20032;-85
2022/01/09 10:03:04;;;;;;;12.50;2.75;;;5.80;99.90;;;;;;4991342;28;20041;-85
2022/01/09 10:05:35;;;;;;;13.38;2.42;;;5.80;99.90;;;;;;4998246;28;20068;-85
2022/01/09 10:08:08;;;;;;;14.15;2.70;;;6.50;99.90;;;;;;4979260;28;20101;-85
2022/01/09 10:10:36;;;;;;;18.10;3.60;;;5.80;99.90;;;;;;4987238;28;20041;-85
2022/01/09 10:13:19;;;;;;;15.80;2.90;;;5.80;99.90;;;;;;4994780;28;20120;-84
2022/01/09 10:15:56;;;;;;;12.50;2.60;;;6.40;99.90;;;;;;4983206;28;20139;-84
2022/01/09 10:18:41;;;;;;;15.38;2.28;;;6.90;99.90;;;;;;4992303;28;20104;-85
2022/01/09 10:21:27;;;;;;;12.80;2.60;;;5.80;99.90;;;;;;4990810;28;20121;-85
2022/01/09 10:23:56;;;;;;;14.05;2.88;;;5.80;99.90;;;;;;5002240;28;20045;-85
2022/01/09 10:26:24;;;;;;;12.77;2.42;;;5.80;99.90;;;;;;5004804;28;20056;-85
2022/01/09 10:28:49;;;;;;;15.77;2.72;;;5.80;99.90;;;;;;4987959;28;20041;-85
2022/01/09 10:31:17;;;;;;;11.15;2.50;;;5.90;99.90;;;;;;4997001;28;20124;-85
2022/01/09 10:34:06;;;;;;;15.98;3.17;;;6.70;99.90;;;;;;4986117;28;20495;-85
2022/01/09 10:36:33;;;;;;;14.68;2.58;;;6.60;99.90;;;;;;4988127;28;20040;-85
2022/01/09 10:39:03;;;;;;;12.60;2.30;;;6.00;99.90;;;;;;4974842;28;20073;-84
2022/01/09 10:41:58;;;;;;;13.50;2.85;;;6.00;99.90;;;;;;4990051;28;20048;-85
2022/01/09 10:44:31;;;;;;;12.57;2.47;;;6.10;99.90;;;;;;5002722;28;20057;-85
2022/01/09 10:47:10;;;;;;;10.13;2.45;;;6.00;99.90;;;;;;5008451;28;20045;-85
2022/01/09 10:49:47;;;;;;;13.32;2.60;;;6.10;99.90;;;;;;5004845;28;20558;-86
2022/01/09 10:52:21;;;;;;;10.35;2.30;;;6.10;99.90;;;;;;5007075;28;20092;-85
2022/01/09 10:54:49;;;;;;;12.88;2.58;;;6.10;99.90;;;;;;4990643;28;20046;-85
2022/01/09 10:57:29;;;;;;;13.32;2.47;;;7.20;99.90;;;;;;4991237;28;20046;-85
2022/01/09 11:00:06;;;;;;;13.25;2.78;;;6.20;99.90;;;;;;4981838;28;20123;-85
2022/01/09 11:02:32;;;;;;;11.10;2.72;;;6.20;99.90;;;;;;4983140;28;20049;-85
2022/01/09 11:04:58;;;;;;;14.65;3.03;;;6.20;99.90;;;;;;4968878;28;20045;-84
2022/01/09 11:07:24;;;;;;;16.65;2.33;;;6.20;99.90;;;;;;4991916;28;20046;-85
2022/01/09 11:09:51;;;;;;;12.75;2.50;;;7.20;99.90;;;;;;5005940;28;20085;-85
2022/01/09 11:12:20;;;;;;;12.18;2.60;;;7.50;99.90;;;;;;4991340;28;20069;-85
2022/01/09 11:14:48;;;;;;;16.92;3.00;;;6.90;99.90;;;;;;4994939;28;20093;-85
2022/01/09 11:17:16;;;;;;;12.57;2.90;;;6.20;99.90;;;;;;4995612;28;20034;-85
2022/01/09 11:19:42;;;;;;;11.85;2.38;;;7.00;99.90;;;;;;4994525;28;20042;-85
2022/01/09 11:22:10;;;;;;;11.35;2.10;;;6.10;99.90;;;;;;4979258;28;20098;-85
2022/01/09 11:25:14;;;;;;;13.85;2.58;;;6.20;99.90;;;;;;5005476;28;20577;-85
2022/01/09 11:28:12;;;;;;;10.95;2.40;;;6.10;99.90;;;;;;4999381;28;20040;-85
2022/01/09 11:31:01;;;;;;;15.23;2.88;;;6.10;99.90;;;;;;4992986;28;20041;-85
2022/01/09 11:33:47;;;;;;;17.05;3.33;;;6.10;99.90;;;;;;4995043;28;20033;-84
2022/01/09 11:36:38;;;;;;;13.65;2.10;;;6.30;99.90;;;;;;4993877;28;20029;-85
2022/01/09 11:39:17;;;;;;;13.57;2.58;;;6.20;99.90;;;;;;4993808;28;20340;-85
2022/01/09 11:41:44;;;;;;;13.85;2.40;;;6.20;99.90;;;;;;5010619;28;20268;-85
2022/01/09 11:44:15;;;;;;;18.13;3.30;;;6.20;99.90;;;;;;4995214;28;20033;-85
2022/01/09 11:46:59;;;;;;;11.30;2.38;;;6.30;99.90;;;;;;4980889;28;20677;-85
2022/01/09 11:49:36;;;;;;;16.10;2.83;;;6.30;99.90;;;;;;5014838;28;20049;-85
2022/01/09 11:52:02;;;;;;;16.60;2.70;;;6.60;99.90;;;;;;4997973;28;20116;-85
2022/01/09 11:54:45;;;;;;;13.35;2.85;;;7.70;99.90;;;;;;4998190;28;20510;-85
2022/01/09 11:57:14;;;;;;;10.65;2.55;;;6.40;99.90;;;;;;4999138;28;20045;-85
2022/01/09 11:59:45;;;;;;;13.15;2.53;;;6.50;99.90;;;;;;5014472;28;20045;-85
2022/01/09 12:02:14;;;;;;;15.50;2.45;;;7.60;99.90;;;;;;4997210;28;20097;-85
2022/01/09 12:04:45;;;;;;;10.82;2.20;;;5.40;99.90;;;;;;5006967;28;20525;-85
2022/01/09 12:07:32;;;;;;;15.52;2.58;;;6.50;99.90;;;;;;5019158;28;20115;-85
2022/01/09 12:09:58;;;;;;;11.57;2.28;;;6.50;99.90;;;;;;4953875;28;20092;-84
2022/01/09 12:12:36;;;;;;;11.50;2.35;;;6.50;99.90;;;;;;5012197;28;20494;-84
2022/01/09 12:15:05;;;;;;;13.15;2.30;;;6.50;99.90;;;;;;4996859;28;20521;-85
2022/01/09 12:17:32;;;;;;;11.05;2.40;;;6.60;99.90;;;;;;4976742;28;20064;-85
2022/01/09 12:20:10;;;;;;;14.65;2.63;;;6.60;99.90;;;;;;4305032;28;10000291;-86
2022/01/09 12:22:50;;;;;;;12.40;2.50;;;6.70;99.90;;;;;;5017962;28;20061;-85
2022/01/09 12:25:23;;;;;;;11.50;2.70;;;7.40;99.90;;;;;;4992521;28;20053;-86
2022/01/09 12:27:54;;;;;;;14.67;3.27;;;6.70;99.90;;;;;;5011844;28;20033;-85
2022/01/09 12:30:44;;;;;;;12.05;2.47;;;6.70;99.90;;;;;;5008629;28;20052;-85
2022/01/09 12:33:38;;;;;;;15.80;2.90;;;6.80;99.90;;;;;;5009783;28;20037;-85
2022/01/09 12:36:15;;;;;;;17.38;3.00;;;6.80;99.90;;;;;;4993589;28;20045;-85
2022/01/09 12:38:51;;;;;;;14.43;2.67;;;6.80;99.90;;;;;;5011868;28;20564;-85
2022/01/09 12:41:29;;;;;;;10.32;2.47;;;8.00;99.90;;;;;;4989667;28;20052;-85
2022/01/09 12:44:04;;;;;;;13.93;2.92;;;7.00;99.90;;;;;;4994543;28;20087;-85
2022/01/09 12:46:33;;;;;;;9.68;2.42;;;7.20;99.90;;;;;;4995219;28;20045;-85
2022/01/09 12:49:05;;;;;;;11.38;2.80;;;7.00;99.90;;;;;;4992026;28;20045;-85